Portada
METAR-TAF:

METAR-TAF

Aeroports :

Riverside Municipal Airport

Riverside, Califòrnia, Estats Units d'Amèrica

latitud: 33-57-05N, longitud: 117-27-02W, altitud: 248 m

Observació

L'informe es va fer fa 45 minuts, a les 06:53 UTC
Vent calma
Temperatura 26°C
Humitat 48%
Pressió 1013 hPa
Visibilitat: 16.1 km
Cel clar

METAR: KRAL 230653Z AUTO 00000KT 10SM CLR 26/14 A2990 RMK AO2 SLP106 T02610144

Hora: 00:38 (07:38 UTC)


TAF: manca

Observacions i pronòstics meteorològics de més de 4000 aeroports (METAR i TAF).

Les estacions disponibles són els punts grocs i vermells al mapa.

Posi el ratolí al punt desitjat per veure el nom de l'estació.

Feu clic per veure les observacions i els pronòstics meteorològics.

Per canviar el mapa: feu clic els botons verds amb una creu de color negre per apropar; al botó verd amb un guió per allunyar la imatge; o en les fletxes verdes per a mapes adjacents.


METAR-TAF: